sensor_id;sensor_type;location;lat;lon;timestamp;pressure;altitude;pressure_sealevel;temperature;humidity
76478;BME280;65309;49.790;18.972;2023-02-18T00:02:13;70918.97;;;-145.47;100.00
76478;BME280;65309;49.790;18.972;2023-02-18T00:07:15;70918.97;;;-145.47;100.00
76478;BME280;65309;49.790;18.972;2023-02-18T00:12:18;70918.97;;;-145.47;100.00
76478;BME280;65309;49.790;18.972;2023-02-18T00:17:20;70918.97;;;-145.47;100.00
76478;BME280;65309;49.790;18.972;2023-02-18T00:22:23;70918.97;;;-145.47;100.00
76478;BME280;65309;49.790;18.972;2023-02-18T00:27:26;70918.97;;;-145.47;100.00
76478;BME280;65309;49.790;18.972;2023-02-18T00:32:28;70918.97;;;-145.47;100.00
76478;BME280;65309;49.790;18.972;2023-02-18T00:37:31;70918.97;;;-145.47;100.00
76478;BME280;65309;49.790;18.972;2023-02-18T00:42:37;70918.97;;;-145.47;100.00
76478;BME280;65309;49.790;18.972;2023-02-18T00:47:39;70918.97;;;-145.47;100.00
76478;BME280;65309;49.790;18.972;2023-02-18T00:52:41;70918.97;;;-145.47;100.00
76478;BME280;65309;49.790;18.972;2023-02-18T00:57:44;70918.97;;;-145.47;100.00
76478;BME280;65309;49.790;18.972;2023-02-18T01:02:47;70918.97;;;-145.47;100.00
76478;BME280;65309;49.790;18.972;2023-02-18T01:07:49;70918.97;;;-145.47;100.00
76478;BME280;65309;49.790;18.972;2023-02-18T01:12:52;70918.97;;;-145.47;100.00
76478;BME280;65309;49.790;18.972;2023-02-18T01:17:54;70918.97;;;-145.47;100.00
76478;BME280;65309;49.790;18.972;2023-02-18T01:22:56;70918.97;;;-145.47;100.00
76478;BME280;65309;49.790;18.972;2023-02-18T01:28:00;70918.97;;;-145.47;100.00
76478;BME280;65309;49.790;18.972;2023-02-18T01:33:02;70918.97;;;-145.47;100.00
76478;BME280;65309;49.790;18.972;2023-02-18T01:38:04;70918.97;;;-145.47;100.00
76478;BME280;65309;49.790;18.972;2023-02-18T01:43:10;70918.97;;;-145.47;100.00
76478;BME280;65309;49.790;18.972;2023-02-18T01:48:15;70918.97;;;-145.47;100.00
76478;BME280;65309;49.790;18.972;2023-02-18T01:53:21;70918.97;;;-145.47;100.00
76478;BME280;65309;49.790;18.972;2023-02-18T01:58:26;70918.97;;;-145.47;100.00
76478;BME280;65309;49.790;18.972;2023-02-18T02:03:28;70918.97;;;-145.47;100.00
76478;BME280;65309;49.790;18.972;2023-02-18T02:08:30;70918.97;;;-145.47;100.00
76478;BME280;65309;49.790;18.972;2023-02-18T02:13:46;70918.97;;;-145.47;100.00
76478;BME280;65309;49.790;18.972;2023-02-18T02:18:59;70918.97;;;-145.47;100.00
76478;BME280;65309;49.790;18.972;2023-02-18T02:24:41;70918.97;;;-145.47;100.00
76478;BME280;65309;49.790;18.972;2023-02-18T02:30:11;70918.97;;;-145.47;100.00
76478;BME280;65309;49.790;18.972;2023-02-18T02:35:23;70918.97;;;-145.47;100.00
76478;BME280;65309;49.790;18.972;2023-02-18T02:40:32;70918.97;;;-145.47;100.00
76478;BME280;65309;49.790;18.972;2023-02-18T02:45:43;70918.97;;;-145.47;100.00
76478;BME280;65309;49.790;18.972;2023-02-18T02:50:53;70918.97;;;-145.47;100.00
76478;BME280;65309;49.790;18.972;2023-02-18T02:55:59;70918.97;;;-145.47;100.00
76478;BME280;65309;49.790;18.972;2023-02-18T03:01:19;70918.97;;;-145.47;100.00
76478;BME280;65309;49.790;18.972;2023-02-18T03:06:40;70918.97;;;-145.47;100.00
76478;BME280;65309;49.790;18.972;2023-02-18T03:11:52;70918.97;;;-145.47;100.00
76478;BME280;65309;49.790;18.972;2023-02-18T03:17:01;70918.97;;;-145.47;100.00
76478;BME280;65309;49.790;18.972;2023-02-18T03:22:10;70918.97;;;-145.47;100.00
76478;BME280;65309;49.790;18.972;2023-02-18T03:27:16;70918.97;;;-145.47;100.00
76478;BME280;65309;49.790;18.972;2023-02-18T03:32:21;70918.97;;;-145.47;100.00
76478;BME280;65309;49.790;18.972;2023-02-18T03:37:26;70918.97;;;-145.47;100.00
76478;BME280;65309;49.790;18.972;2023-02-18T03:42:28;70918.97;;;-145.47;100.00
76478;BME280;65309;49.790;18.972;2023-02-18T03:47:30;70918.97;;;-145.47;100.00
76478;BME280;65309;49.790;18.972;2023-02-18T03:52:34;70918.97;;;-145.47;100.00
76478;BME280;65309;49.790;18.972;2023-02-18T03:57:37;70918.97;;;-145.47;100.00
76478;BME280;65309;49.790;18.972;2023-02-18T04:02:39;70918.97;;;-145.47;100.00
76478;BME280;65309;49.790;18.972;2023-02-18T04:07:43;70918.97;;;-145.47;100.00
76478;BME280;65309;49.790;18.972;2023-02-18T04:12:45;70918.97;;;-145.47;100.00
76478;BME280;65309;49.790;18.972;2023-02-18T04:17:47;70918.97;;;-145.47;100.00
76478;BME280;65309;49.790;18.972;2023-02-18T04:22:50;70918.97;;;-145.47;100.00
76478;BME280;65309;49.790;18.972;2023-02-18T04:27:52;70918.97;;;-145.47;100.00
76478;BME280;65309;49.790;18.972;2023-02-18T04:32:54;70918.97;;;-145.47;100.00
76478;BME280;65309;49.790;18.972;2023-02-18T04:37:57;70918.97;;;-145.47;100.00
76478;BME280;65309;49.790;18.972;2023-02-18T04:42:59;70918.97;;;-145.47;100.00
76478;BME280;65309;49.790;18.972;2023-02-18T04:48:02;70918.97;;;-145.47;100.00
76478;BME280;65309;49.790;18.972;2023-02-18T04:53:05;70918.97;;;-145.47;100.00
76478;BME280;65309;49.790;18.972;2023-02-18T04:58:07;70918.97;;;-145.47;100.00
76478;BME280;65309;49.790;18.972;2023-02-18T05:03:10;70918.97;;;-145.47;100.00
76478;BME280;65309;49.790;18.972;2023-02-18T05:08:14;70918.97;;;-145.47;100.00
76478;BME280;65309;49.790;18.972;2023-02-18T05:13:17;70918.97;;;-145.47;100.00
76478;BME280;65309;49.790;18.972;2023-02-18T05:18:19;70918.97;;;-145.47;100.00
76478;BME280;65309;49.790;18.972;2023-02-18T05:23:22;70918.97;;;-145.47;100.00
76478;BME280;65309;49.790;18.972;2023-02-18T05:28:26;70918.97;;;-145.47;100.00
76478;BME280;65309;49.790;18.972;2023-02-18T05:33:28;70918.97;;;-145.47;100.00
76478;BME280;65309;49.790;18.972;2023-02-18T05:38:31;70918.97;;;-145.47;100.00
76478;BME280;65309;49.790;18.972;2023-02-18T05:43:33;70918.97;;;-145.47;100.00
76478;BME280;65309;49.790;18.972;2023-02-18T05:48:56;70918.97;;;-145.47;100.00
76478;BME280;65309;49.790;18.972;2023-02-18T05:54:00;70918.97;;;-145.47;100.00
76478;BME280;65309;49.790;18.972;2023-02-18T05:59:02;70918.97;;;-145.47;100.00
76478;BME280;65309;49.790;18.972;2023-02-18T06:04:04;70918.97;;;-145.47;100.00
76478;BME280;65309;49.790;18.972;2023-02-18T06:09:08;70918.97;;;-145.47;100.00
76478;BME280;65309;49.790;18.972;2023-02-18T06:14:10;70918.97;;;-145.47;100.00
76478;BME280;65309;49.790;18.972;2023-02-18T06:19:12;70918.97;;;-145.47;100.00
76478;BME280;65309;49.790;18.972;2023-02-18T06:24:16;70918.97;;;-145.47;100.00
76478;BME280;65309;49.790;18.972;2023-02-18T06:29:18;70918.97;;;-145.47;100.00
76478;BME280;65309;49.790;18.972;2023-02-18T06:34:20;70918.97;;;-145.47;100.00
76478;BME280;65309;49.790;18.972;2023-02-18T06:40:22;70918.97;;;-145.47;100.00
76478;BME280;65309;49.790;18.972;2023-02-18T06:45:24;96920.25;;;8.03;65.93
76478;BME280;65309;49.790;18.972;2023-02-18T06:50:26;96925.00;;;8.02;67.53
76478;BME280;65309;49.790;18.972;2023-02-18T06:55:29;96931.59;;;7.96;68.57
76478;BME280;65309;49.790;18.972;2023-02-18T07:00:31;96934.03;;;7.84;68.76
76478;BME280;65309;49.790;18.972;2023-02-18T07:05:33;96934.47;;;7.83;69.29
76478;BME280;65309;49.790;18.972;2023-02-18T07:10:37;96933.88;;;7.79;70.18
76478;BME280;65309;49.790;18.972;2023-02-18T07:15:40;96936.47;;;7.92;70.17
76478;BME280;65309;49.790;18.972;2023-02-18T07:20:42;96921.00;;;7.85;70.26
76478;BME280;65309;49.790;18.972;2023-02-18T07:25:45;96940.47;;;7.91;70.50
76478;BME280;65309;49.790;18.972;2023-02-18T07:30:47;96925.63;;;7.88;72.06
76478;BME280;65309;49.790;18.972;2023-02-18T07:35:52;96930.22;;;7.91;73.33
76478;BME280;65309;49.790;18.972;2023-02-18T07:40:56;96933.13;;;8.15;72.92
76478;BME280;65309;49.790;18.972;2023-02-18T07:45:58;96920.88;;;8.07;74.79
76478;BME280;65309;49.790;18.972;2023-02-18T07:51:00;96921.81;;;8.04;75.66
76478;BME280;65309;49.790;18.972;2023-02-18T07:56:07;96930.34;;;8.06;75.41
76478;BME280;65309;49.790;18.972;2023-02-18T08:01:13;96922.25;;;8.02;75.77
76478;BME280;65309;49.790;18.972;2023-02-18T08:06:20;96933.41;;;7.99;75.84
76478;BME280;65309;49.790;18.972;2023-02-18T08:11:24;96921.31;;;7.78;76.52
76478;BME280;65309;49.790;18.972;2023-02-18T08:16:26;96914.75;;;7.94;76.44
76478;BME280;65309;49.790;18.972;2023-02-18T08:21:29;96923.94;;;7.91;75.07
76478;BME280;65309;49.790;18.972;2023-02-18T08:26:33;96923.63;;;8.07;74.64
76478;BME280;65309;49.790;18.972;2023-02-18T08:31:35;96930.34;;;8.06;74.21
76478;BME280;65309;49.790;18.972;2023-02-18T08:36:37;96934.97;;;8.09;74.45
76478;BME280;65309;49.790;18.972;2023-02-18T08:41:40;96936.63;;;7.88;74.87
76478;BME280;65309;49.790;18.972;2023-02-18T08:46:42;96932.34;;;7.87;74.72
76478;BME280;65309;49.790;18.972;2023-02-18T08:51:45;96931.13;;;7.88;72.33
76478;BME280;65309;49.790;18.972;2023-02-18T08:56:48;96912.91;;;7.81;72.71
76478;BME280;65309;49.790;18.972;2023-02-18T09:01:51;96911.38;;;7.71;73.83
76478;BME280;65309;49.790;18.972;2023-02-18T09:06:56;96924.06;;;7.78;74.57
76478;BME280;65309;49.790;18.972;2023-02-18T09:11:59;96930.97;;;7.92;73.50
76478;BME280;65309;49.790;18.972;2023-02-18T09:17:01;96926.22;;;7.83;74.36
76478;BME280;65309;49.790;18.972;2023-02-18T09:22:04;96936.59;;;7.70;73.99
76478;BME280;65309;49.790;18.972;2023-02-18T09:27:07;96923.63;;;7.79;73.35
76478;BME280;65309;49.790;18.972;2023-02-18T09:32:12;96931.53;;;7.68;72.69
76478;BME280;65309;49.790;18.972;2023-02-18T09:37:26;96931.72;;;7.74;72.79
76478;BME280;65309;49.790;18.972;2023-02-18T09:42:31;96937.34;;;7.61;73.00
76478;BME280;65309;49.790;18.972;2023-02-18T09:47:37;96925.13;;;7.62;72.75
76478;BME280;65309;49.790;18.972;2023-02-18T09:52:39;96922.72;;;8.19;66.57
76478;BME280;65309;49.790;18.972;2023-02-18T09:57:45;96919.34;;;8.24;65.37
76478;BME280;65309;49.790;18.972;2023-02-18T10:02:53;96904.06;;;8.41;68.23
76478;BME280;65309;49.790;18.972;2023-02-18T10:07:59;96890.28;;;8.41;69.58
76478;BME280;65309;49.790;18.972;2023-02-18T10:13:09;96869.91;;;8.20;68.69
76478;BME280;65309;49.790;18.972;2023-02-18T10:18:21;96853.25;;;8.33;64.69
76478;BME280;65309;49.790;18.972;2023-02-18T10:23:25;96852.94;;;8.31;67.96
76478;BME280;65309;49.790;18.972;2023-02-18T10:28:32;96834.25;;;8.26;69.02
76478;BME280;65309;49.790;18.972;2023-02-18T10:33:41;96850.19;;;8.22;65.13
76478;BME280;65309;49.790;18.972;2023-02-18T10:39:00;96855.09;;;8.09;65.75
76478;BME280;65309;49.790;18.972;2023-02-18T10:44:13;96841.63;;;8.02;67.46
76478;BME280;65309;49.790;18.972;2023-02-18T10:49:36;96844.41;;;7.93;67.54
76478;BME280;65309;49.790;18.972;2023-02-18T10:54:52;96842.72;;;7.59;73.10
76478;BME280;65309;49.790;18.972;2023-02-18T10:59:59;96832.75;;;7.52;73.26
76478;BME280;65309;49.790;18.972;2023-02-18T11:05:11;96840.88;;;7.47;74.59
76478;BME280;65309;49.790;18.972;2023-02-18T11:10:18;96820.69;;;7.59;75.77
76478;BME280;65309;49.790;18.972;2023-02-18T11:15:26;96821.69;;;7.16;78.46
76478;BME280;65309;49.790;18.972;2023-02-18T11:20:31;96815.69;;;6.99;78.79
76478;BME280;65309;49.790;18.972;2023-02-18T11:25:34;96793.25;;;7.01;79.30
76478;BME280;65309;49.790;18.972;2023-02-18T11:30:39;96796.31;;;7.03;80.20
76478;BME280;65309;49.790;18.972;2023-02-18T11:35:48;96787.63;;;7.13;80.63
76478;BME280;65309;49.790;18.972;2023-02-18T11:40:53;96771.56;;;7.12;83.59
76478;BME280;65309;49.790;18.972;2023-02-18T11:46:09;96759.97;;;7.35;81.88
76478;BME280;65309;49.790;18.972;2023-02-18T11:51:17;96741.34;;;7.21;80.61
76478;BME280;65309;49.790;18.972;2023-02-18T11:56:19;96731.09;;;7.12;81.54
76478;BME280;65309;49.790;18.972;2023-02-18T12:01:35;96719.66;;;7.14;81.54
76478;BME280;65309;49.790;18.972;2023-02-18T12:06:44;96710.47;;;7.17;82.42
76478;BME280;65309;49.790;18.972;2023-02-18T12:11:50;96699.44;;;6.89;82.79
76478;BME280;65309;49.790;18.972;2023-02-18T12:17:11;96686.31;;;6.84;83.93
76478;BME280;65309;49.790;18.972;2023-02-18T12:22:20;96666.59;;;6.77;84.26
76478;BME280;65309;49.790;18.972;2023-02-18T12:27:28;96660.66;;;6.97;85.77
76478;BME280;65309;49.790;18.972;2023-02-18T12:32:39;96649.06;;;6.92;87.06
76478;BME280;65309;49.790;18.972;2023-02-18T12:43:29;96623.25;;;6.72;87.88
76478;BME280;65309;49.790;18.972;2023-02-18T12:48:47;96609.97;;;6.88;88.70
76478;BME280;65309;49.790;18.972;2023-02-18T12:54:02;96599.59;;;6.92;88.16
76478;BME280;65309;49.790;18.972;2023-02-18T12:59:16;96565.94;;;7.07;87.80
76478;BME280;65309;49.790;18.972;2023-02-18T13:04:29;96547.22;;;7.47;85.09
76478;BME280;65309;49.790;18.972;2023-02-18T13:09:47;96534.88;;;7.66;83.53
76478;BME280;65309;49.790;18.972;2023-02-18T13:14:58;96523.44;;;7.92;83.03
76478;BME280;65309;49.790;18.972;2023-02-18T13:20:07;96517.84;;;8.10;81.74
76478;BME280;65309;49.790;18.972;2023-02-18T13:25:16;96490.56;;;8.36;80.71
76478;BME280;65309;49.790;18.972;2023-02-18T13:30:22;96492.66;;;8.41;79.92
76478;BME280;65309;49.790;18.972;2023-02-18T13:35:33;96478.66;;;8.68;79.11
76478;BME280;65309;49.790;18.972;2023-02-18T13:40:36;96460.78;;;8.63;80.15
76478;BME280;65309;49.790;18.972;2023-02-18T13:45:39;96467.72;;;8.59;80.48
76478;BME280;65309;49.790;18.972;2023-02-18T13:50:42;96436.47;;;8.76;80.01
76478;BME280;65309;49.790;18.972;2023-02-18T13:55:50;96445.09;;;8.69;81.29
76478;BME280;65309;49.790;18.972;2023-02-18T14:01:00;96441.69;;;8.60;82.42
76478;BME280;65309;49.790;18.972;2023-02-18T14:06:14;96420.00;;;8.82;80.87
76478;BME280;65309;49.790;18.972;2023-02-18T14:11:33;96415.34;;;8.73;82.95
76478;BME280;65309;49.790;18.972;2023-02-18T14:22:32;96396.91;;;8.80;83.96
76478;BME280;65309;49.790;18.972;2023-02-18T14:27:35;96379.56;;;8.94;82.72
76478;BME280;65309;49.790;18.972;2023-02-18T14:32:38;96369.69;;;8.72;84.49
76478;BME280;65309;49.790;18.972;2023-02-18T14:38:09;96356.56;;;8.82;84.32
76478;BME280;65309;49.790;18.972;2023-02-18T14:43:26;96341.34;;;9.01;83.39
76478;BME280;65309;49.790;18.972;2023-02-18T14:48:41;96319.66;;;8.94;83.75
76478;BME280;65309;49.790;18.972;2023-02-18T14:53:47;96313.81;;;9.07;83.02
76478;BME280;65309;49.790;18.972;2023-02-18T14:58:51;96298.00;;;9.22;82.73
76478;BME280;65309;49.790;18.972;2023-02-18T15:03:56;96290.38;;;9.17;82.42
76478;BME280;65309;49.790;18.972;2023-02-18T15:09:02;96304.31;;;9.08;83.50
76478;BME280;65309;49.790;18.972;2023-02-18T15:14:16;96295.06;;;9.11;85.08
76478;BME280;65309;49.790;18.972;2023-02-18T15:19:22;96279.78;;;9.10;84.51
76478;BME280;65309;49.790;18.972;2023-02-18T15:24:30;96281.59;;;8.98;84.80
76478;BME280;65309;49.790;18.972;2023-02-18T15:29:34;96284.00;;;8.91;85.65
76478;BME280;65309;49.790;18.972;2023-02-18T15:34:38;96278.38;;;9.00;85.12
76478;BME280;65309;49.790;18.972;2023-02-18T15:39:42;96279.69;;;9.04;86.60
76478;BME280;65309;49.790;18.972;2023-02-18T15:44:46;96259.91;;;9.06;86.23
76478;BME280;65309;49.790;18.972;2023-02-18T15:49:51;96267.69;;;9.07;85.53
76478;BME280;65309;49.790;18.972;2023-02-18T15:55:00;96265.00;;;9.13;84.44
76478;BME280;65309;49.790;18.972;2023-02-18T16:00:12;96232.88;;;9.10;84.11
76478;BME280;65309;49.790;18.972;2023-02-18T16:05:15;96231.47;;;9.20;82.48
76478;BME280;65309;49.790;18.972;2023-02-18T16:10:22;96240.38;;;9.30;81.96
76478;BME280;65309;49.790;18.972;2023-02-18T16:15:26;96231.31;;;9.49;79.75
76478;BME280;65309;49.790;18.972;2023-02-18T16:20:32;96227.75;;;9.43;78.16
76478;BME280;65309;49.790;18.972;2023-02-18T16:25:40;96221.25;;;9.46;76.92
76478;BME280;65309;49.790;18.972;2023-02-18T16:30:43;96244.03;;;9.41;76.77
76478;BME280;65309;49.790;18.972;2023-02-18T16:35:47;96225.59;;;9.53;75.23
76478;BME280;65309;49.790;18.972;2023-02-18T16:40:54;96236.41;;;9.56;74.85
76478;BME280;65309;49.790;18.972;2023-02-18T16:46:04;96250.28;;;9.62;74.57
76478;BME280;65309;49.790;18.972;2023-02-18T16:51:14;96262.09;;;9.62;73.20
76478;BME280;65309;49.790;18.972;2023-02-18T16:56:21;96262.53;;;9.55;74.83
76478;BME280;65309;49.790;18.972;2023-02-18T17:01:25;96273.97;;;9.48;77.03
76478;BME280;65309;49.790;18.972;2023-02-18T17:06:28;96285.75;;;9.08;79.33
76478;BME280;65309;49.790;18.972;2023-02-18T17:11:33;96291.72;;;8.87;81.03
76478;BME280;65309;49.790;18.972;2023-02-18T17:16:35;96294.28;;;8.55;82.73
76478;BME280;65309;49.790;18.972;2023-02-18T17:21:38;96303.16;;;8.65;82.12
76478;BME280;65309;49.790;18.972;2023-02-18T17:26:42;96287.63;;;8.47;83.17
76478;BME280;65309;49.790;18.972;2023-02-18T17:31:45;96288.16;;;8.66;82.08
76478;BME280;65309;49.790;18.972;2023-02-18T17:36:48;96290.00;;;8.54;81.57
76478;BME280;65309;49.790;18.972;2023-02-18T17:41:51;96305.81;;;8.74;81.01
76478;BME280;65309;49.790;18.972;2023-02-18T17:46:53;96315.16;;;8.76;80.07
76478;BME280;65309;49.790;18.972;2023-02-18T17:51:56;96316.84;;;8.74;80.19
76478;BME280;65309;49.790;18.972;2023-02-18T17:57:00;96303.09;;;8.94;77.40
76478;BME280;65309;49.790;18.972;2023-02-18T18:02:02;96310.06;;;8.90;79.05
76478;BME280;65309;49.790;18.972;2023-02-18T18:07:04;96325.56;;;8.87;79.18
76478;BME280;65309;49.790;18.972;2023-02-18T18:12:10;96298.66;;;8.82;78.87
76478;BME280;65309;49.790;18.972;2023-02-18T18:17:14;96336.97;;;8.95;77.39
76478;BME280;65309;49.790;18.972;2023-02-18T18:22:16;96354.69;;;8.73;79.83
76478;BME280;65309;49.790;18.972;2023-02-18T18:27:20;96358.22;;;8.45;80.82
76478;BME280;65309;49.790;18.972;2023-02-18T18:32:22;96355.47;;;8.30;82.00
76478;BME280;65309;49.790;18.972;2023-02-18T18:37:24;96370.16;;;8.12;82.04
76478;BME280;65309;49.790;18.972;2023-02-18T18:42:27;70918.97;;;-145.47;100.00
76478;BME280;65309;49.790;18.972;2023-02-18T18:47:29;70918.97;;;-145.47;100.00
76478;BME280;65309;49.790;18.972;2023-02-18T18:52:31;70918.97;;;-145.47;100.00
76478;BME280;65309;49.790;18.972;2023-02-18T18:57:35;70918.97;;;-145.47;100.00
76478;BME280;65309;49.790;18.972;2023-02-18T19:02:36;70918.97;;;-145.47;100.00
76478;BME280;65309;49.790;18.972;2023-02-18T19:07:39;70918.97;;;-145.47;100.00
76478;BME280;65309;49.790;18.972;2023-02-18T19:12:42;70918.97;;;-145.47;100.00
76478;BME280;65309;49.790;18.972;2023-02-18T19:17:49;70918.97;;;-145.47;100.00
76478;BME280;65309;49.790;18.972;2023-02-18T19:22:52;70918.97;;;-145.47;100.00
76478;BME280;65309;49.790;18.972;2023-02-18T19:27:56;70918.97;;;-145.47;100.00
76478;BME280;65309;49.790;18.972;2023-02-18T19:32:59;70918.97;;;-145.47;100.00
76478;BME280;65309;49.790;18.972;2023-02-18T19:38:01;70918.97;;;-145.47;100.00
76478;BME280;65309;49.790;18.972;2023-02-18T19:43:06;70918.97;;;-145.47;100.00
76478;BME280;65309;49.790;18.972;2023-02-18T19:48:08;70918.97;;;-145.47;100.00
76478;BME280;65309;49.790;18.972;2023-02-18T19:53:10;70918.97;;;-145.47;100.00
76478;BME280;65309;49.790;18.972;2023-02-18T19:58:14;70918.97;;;-145.47;100.00
76478;BME280;65309;49.790;18.972;2023-02-18T20:03:16;70918.97;;;-145.47;100.00
76478;BME280;65309;49.790;18.972;2023-02-18T20:08:18;70918.97;;;-145.47;100.00
76478;BME280;65309;49.790;18.972;2023-02-18T20:13:22;70918.97;;;-145.47;100.00
76478;BME280;65309;49.790;18.972;2023-02-18T20:18:24;70918.97;;;-145.47;100.00
76478;BME280;65309;49.790;18.972;2023-02-18T20:23:26;70918.97;;;-145.47;100.00
76478;BME280;65309;49.790;18.972;2023-02-18T20:28:29;70918.97;;;-145.47;100.00
76478;BME280;65309;49.790;18.972;2023-02-18T20:33:31;70918.97;;;-145.47;100.00
76478;BME280;65309;49.790;18.972;2023-02-18T20:38:35;70918.97;;;-145.47;100.00
76478;BME280;65309;49.790;18.972;2023-02-18T20:43:38;70918.97;;;-145.47;100.00
76478;BME280;65309;49.790;18.972;2023-02-18T20:48:41;70918.97;;;-145.47;100.00
76478;BME280;65309;49.790;18.972;2023-02-18T20:53:44;70918.97;;;-145.47;100.00
76478;BME280;65309;49.790;18.972;2023-02-18T20:58:48;70918.97;;;-145.47;100.00
76478;BME280;65309;49.790;18.972;2023-02-18T21:03:50;70918.97;;;-145.47;100.00
76478;BME280;65309;49.790;18.972;2023-02-18T21:08:53;70918.97;;;-145.47;100.00
76478;BME280;65309;49.790;18.972;2023-02-18T21:13:56;70918.97;;;-145.47;100.00
76478;BME280;65309;49.790;18.972;2023-02-18T21:18:59;70918.97;;;-145.47;100.00
76478;BME280;65309;49.790;18.972;2023-02-18T21:24:01;70918.97;;;-145.47;100.00
76478;BME280;65309;49.790;18.972;2023-02-18T21:29:06;70918.97;;;-145.47;100.00
76478;BME280;65309;49.790;18.972;2023-02-18T21:34:11;70918.97;;;-145.47;100.00
76478;BME280;65309;49.790;18.972;2023-02-18T21:39:14;70918.97;;;-145.47;100.00
76478;BME280;65309;49.790;18.972;2023-02-18T21:44:17;70918.97;;;-145.47;100.00
76478;BME280;65309;49.790;18.972;2023-02-18T21:49:21;70918.97;;;-145.47;100.00
76478;BME280;65309;49.790;18.972;2023-02-18T21:54:25;70918.97;;;-145.47;100.00
76478;BME280;65309;49.790;18.972;2023-02-18T21:59:30;96569.19;;;8.46;70.77
76478;BME280;65309;49.790;18.972;2023-02-18T22:04:35;96563.91;;;8.33;72.15
76478;BME280;65309;49.790;18.972;2023-02-18T22:09:37;96570.28;;;8.39;71.13
76478;BME280;65309;49.790;18.972;2023-02-18T22:14:42;96559.69;;;8.47;71.03
76478;BME280;65309;49.790;18.972;2023-02-18T22:19:44;96561.88;;;8.43;71.27
76478;BME280;65309;49.790;18.972;2023-02-18T22:24:48;96558.41;;;8.33;72.08
76478;BME280;65309;49.790;18.972;2023-02-18T22:29:52;96577.25;;;8.35;72.11
76478;BME280;65309;49.790;18.972;2023-02-18T22:34:54;96582.81;;;8.16;74.19
76478;BME280;65309;49.790;18.972;2023-02-18T22:39:56;96573.91;;;8.21;74.37
76478;BME280;65309;49.790;18.972;2023-02-18T22:44:59;96605.97;;;8.10;75.04
76478;BME280;65309;49.790;18.972;2023-02-18T22:50:03;96611.34;;;7.71;78.48
76478;BME280;65309;49.790;18.972;2023-02-18T22:55:06;96620.72;;;7.47;80.79
76478;BME280;65309;49.790;18.972;2023-02-18T23:00:11;96611.09;;;7.51;79.35
76478;BME280;65309;49.790;18.972;2023-02-18T23:05:13;96599.59;;;7.62;78.83
76478;BME280;65309;49.790;18.972;2023-02-18T23:10:16;96617.19;;;7.55;79.17
76478;BME280;65309;49.790;18.972;2023-02-18T23:15:19;96619.97;;;7.37;81.34
76478;BME280;65309;49.790;18.972;2023-02-18T23:20:21;96640.78;;;7.20;82.78
76478;BME280;65309;49.790;18.972;2023-02-18T23:25:43;96645.41;;;7.05;84.55
76478;BME280;65309;49.790;18.972;2023-02-18T23:30:46;96658.81;;;7.03;85.05
76478;BME280;65309;49.790;18.972;2023-02-18T23:35:48;96664.94;;;7.07;85.33
76478;BME280;65309;49.790;18.972;2023-02-18T23:40:50;96674.13;;;7.13;87.23
76478;BME280;65309;49.790;18.972;2023-02-18T23:45:54;96680.81;;;6.93;88.77
76478;BME280;65309;49.790;18.972;2023-02-18T23:50:59;96690.72;;;6.73;90.43
76478;BME280;65309;49.790;18.972;2023-02-18T23:56:04;96696.91;;;6.37;93.50
